地図

経路データ

SID SEASON NUMBER BASIN SUBBASIN NAME ISO_TIME NATURE LAT LON WMO_WIND WMO_PRES WMO_AGENCY TRACK_TYPE DIST2LAND LANDFALL IFLAG USA_AGENCY USA_ATCF_ID USA_LAT USA_LON USA_RECORD USA_STATUS USA_WIND USA_PRES USA_SSHS USA_R34_NE USA_R34_SE USA_R34_SW USA_R34_NW USA_R50_NE USA_R50_SE USA_R50_SW USA_R50_NW USA_R64_NE USA_R64_SE USA_R64_SW USA_R64_NW USA_POCI USA_ROCI USA_RMW USA_EYE TOKYO_LAT TOKYO_LON TOKYO_GRADE TOKYO_WIND TOKYO_PRES TOKYO_R50_DIR TOKYO_R50_LONG TOKYO_R50_SHORT TOKYO_R30_DIR TOKYO_R30_LONG TOKYO_R30_SHORT TOKYO_LAND CMA_LAT CMA_LON CMA_CAT CMA_WIND CMA_PRES HKO_LAT HKO_LON HKO_CAT HKO_WIND HKO_PRES NEWDELHI_LAT NEWDELHI_LON NEWDELHI_GRADE NEWDELHI_WIND NEWDELHI_PRES NEWDELHI_CI NEWDELHI_DP NEWDELHI_POCI REUNION_LAT REUNION_LON REUNION_TYPE REUNION_WIND REUNION_PRES REUNION_TNUM REUNION_CI REUNION_RMW REUNION_R34_NE REUNION_R34_SE REUNION_R34_SW REUNION_R34_NW REUNION_R50_NE REUNION_R50_SE REUNION_R50_SW REUNION_R50_NW REUNION_R64_NE REUNION_R64_SE REUNION_R64_SW REUNION_R64_NW BOM_LAT BOM_LON BOM_TYPE BOM_WIND BOM_PRES BOM_TNUM BOM_CI BOM_RMW BOM_R34_NE BOM_R34_SE BOM_R34_SW BOM_R34_NW BOM_R50_NE BOM_R50_SE BOM_R50_SW BOM_R50_NW BOM_R64_NE BOM_R64_SE BOM_R64_SW BOM_R64_NW BOM_ROCI BOM_POCI BOM_EYE BOM_POS_METHOD BOM_PRES_METHOD NADI_LAT NADI_LON NADI_CAT NADI_WIND NADI_PRES WELLINGTON_LAT WELLINGTON_LON WELLINGTON_WIND WELLINGTON_PRES DS824_LAT DS824_LON DS824_STAGE DS824_WIND DS824_PRES TD9636_LAT TD9636_LON TD9636_STAGE TD9636_WIND TD9636_PRES TD9635_LAT TD9635_LON TD9635_WIND TD9635_PRES TD9635_ROCI NEUMANN_LAT NEUMANN_LON NEUMANN_CLASS NEUMANN_WIND NEUMANN_PRES MLC_LAT MLC_LON MLC_CLASS MLC_WIND MLC_PRES USA_GUST BOM_GUST BOM_GUST_PER REUNION_GUST REUNION_GUST_PER USA_SEAHGT USA_SEARAD_NE USA_SEARAD_SE USA_SEARAD_SW USA_SEARAD_NW STORM_SPEED STORM_DIR
1952242N08137 1952 59 WP MM MARY 1952-08-28 12:00:00 TS 8.00000 137.000 spur-merge 987 987 __O___________ -1 8.00000 137.000 0 1004 15 319
1952242N08137 1952 59 WP MM MARY 1952-08-28 15:00:00 TS 8.54260 136.518 spur-merge 1035 1035 __P___________ -1 8.54260 136.518 0 1004 14 315
1952242N08137 1952 59 WP MM MARY 1952-08-28 18:00:00 TS 9.00000 136.000 spur-merge 1045 995 __O___________ -1 9.00000 136.000 0 1004 13 305
1952242N08137 1952 59 WP MM MARY 1952-08-28 21:00:00 TS 9.30992 135.422 spur-merge 985 924 __P___________ -1 9.30992 135.422 0 1003 13 293
1952242N08137 1952 59 WP MM MARY 1952-08-29 00:00:00 TS 9.50000 134.800 spur-merge 924 862 __O___________ -1 9.50000 134.800 0 1003 13 284
1952242N08137 1952 59 WP MM MARY 1952-08-29 03:00:00 TS 9.61483 134.172 spur-merge 862 791 __P___________ -1 9.61483 134.172 0 1003 13 279
1952242N08137 1952 59 WP MM MARY 1952-08-29 06:00:00 TS 9.70000 133.500 spur-merge 791 721 __O___________ -1 9.70000 133.500 0 1003 14 279
1952242N08137 1952 59 WP MM MARY 1952-08-29 09:00:00 TS 9.85011 132.735 spur-merge 713 700 __P___________ -1 9.85011 132.735 0 1003 9 276
1952242N08137 1952 59 WP MM MARY 1952-08-29 12:00:00 TS 9.80000 132.600 spur-merge 700 657 O_O______OOO__ jtwc_wp WP101952 9.60000 133.200 30 -1 10.0000 132.000 0 1003 9.60000 133.200 TC 30 9.60000 133.200 1 30 9.60000 133.200 30 999 420 6 264
1952242N08137 1952 59 WP MM MARY 1952-08-29 15:00:00 TS 9.79260 132.130 spur-merge 646 592 P_P______PPP__ WP101952 9.64516 132.518 30 -1 10.0998 131.405 0 1002 9.64516 132.518 TC 30 9.62050 132.417 1 31 9.64516 132.518 30 998 450 10 271
1952242N08137 1952 59 WP MM MARY 1952-08-29 18:00:00 TS 9.81975 131.548 spur-merge 581 519 O_O______OPO__ jtwc_wp WP101952 9.70000 131.800 30 -1 10.2000 130.900 1 29 1002 9.70000 131.800 TC 30 9.67200 131.657 1 32 9.70000 131.800 30 998 480 12 275
1952242N08137 1952 59 WP MM MARY 1952-08-29 21:00:00 TS 9.89698 130.898 spur-merge 519 460 P_P______PPP__ WP101952 9.79003 131.035 32 -1 10.3273 130.442 1 29 1002 9.79003 131.035 TC 32 9.78747 130.944 1 33 9.79003 131.035 32 997 450 13 282
1952242N08137 1952 59 WP MM MARY 1952-08-30 00:00:00 TS 10.1000 130.240 spur-merge 450 406 O_O______OOO__ jtwc_wp WP101952 10.0000 130.300 35 0 10.5000 130.000 1 29 1002 10.0000 130.300 TC 35 10.0000 130.300 2 35 10.0000 130.300 35 996 420 14 294
1952242N08137 1952 59 WP MM MARY 1952-08-30 03:00:00 TS 10.4503 129.642 spur-merge 400 360 P_P______PPP__ WP101952 10.4049 129.655 37 0 10.7050 129.507 1 29 1002 10.4049 129.655 TC 37 10.3322 129.738 2 36 10.4049 129.655 37 996 420 14 305
1952242N08137 1952 59 WP MM MARY 1952-08-30 06:00:00 TS 10.8927 129.105 spur-merge 360 317 O_O______OPO__ jtwc_wp WP101952 10.9000 129.100 40 0 11.0000 129.000 1 29 1002 10.9000 129.100 TC 40 10.7637 129.227 2 37 10.9000 129.100 40 996 420 13 312
1952242N08137 1952 59 WP MM MARY 1952-08-30 09:00:00 TS 11.3360 128.641 spur-merge 307 273 P_P______PPP__ WP101952 11.3347 128.657 40 0 11.4124 128.507 1 33 1000 11.3347 128.657 TC 40 11.2634 128.728 2 38 11.3347 128.657 40 995 390 13 315
1952242N08137 1952 59 WP MM MARY 1952-08-30 12:00:00 TS 11.8200 128.160 spur-merge 276 228 O_O______OOO__ jtwc_wp WP101952 11.8000 128.200 40 0 11.9000 128.000 2 38 998 11.8000 128.200 TC 40 11.8000 128.200 2 40 11.8000 128.200 40 995 360 15 313
1952242N08137 1952 59 WP MM MARY 1952-08-30 15:00:00 TS 12.3392 127.557 spur-merge 228 171 P_P______PPP__ WP101952 12.3350 127.580 45 0 12.3773 127.472 2 38 998 12.3350 127.580 TC 45 12.3133 127.574 2 45 12.3350 127.580 45 995 390 16 311
1952242N08137 1952 59 WP MM MARY 1952-08-30 18:00:00 TS 12.8911 126.903 spur-merge 171 155 O_O______OPO__ jtwc_wp WP101952 12.9000 126.900 50 0 12.9000 126.900 2 38 998 12.9000 126.900 TC 50 12.8553 126.915 2 50 12.9000 126.900 50 995 420 17 311
1952242N08137 1952 59 WP MM MARY 1952-08-30 21:00:00 TS 13.4464 126.241 spur-merge 148 130 P_P______PPP__ WP101952 13.4424 126.235 55 0 13.4851 126.250 2 38 998 13.4424 126.235 TC 55 13.4196 126.248 2 55 13.4424 126.235 55 994 390 17 312
1952242N08137 1952 59 WP MM MARY 1952-08-31 00:00:00 TS 14.0200 125.600 spur-merge 130 101 O_O______OOO__ jtwc_wp WP101952 14.0000 125.600 60 0 14.1000 125.600 2 38 998 14.0000 125.600 TC 60 14.0000 125.600 2 60 14.0000 125.600 60 993 360 17 315
1952242N08137 1952 59 WP MM MARY 1952-08-31 03:00:00 TS 14.6109 125.024 spur-merge 101 101 P_P______PPP__ WP101952 14.5922 125.042 62 0 14.6923 125.027 2 38 997 14.5922 125.042 TC 62 14.5855 124.967 2 61 14.5922 125.042 62 991 390 16 318
1952242N08137 1952 59 WP MM MARY 1952-08-31 06:00:00 TS 15.2170 124.472 spur-merge 136 136 O_O______OPO__ jtwc_wp WP101952 15.2000 124.500 65 1 15.3000 124.500 2 38 996 15.2000 124.500 TC 65 15.1849 124.360 2 62 15.2000 124.500 65 990 420 17 318
1952242N08137 1952 59 WP MM MARY 1952-08-31 09:00:00 TS 15.8285 123.873 spur-merge 187 111 P_P______PPP__ WP101952 15.8077 123.863 65 1 15.9274 123.977 2 43 994 15.8077 123.863 TC 65 15.7919 123.798 2 63 15.8077 123.863 65 987 360 16 318
1952242N08137 1952 59 WP MM MARY 1952-08-31 12:00:00 TS 16.4400 123.340 spur-merge 101 53 O_O______OOO__ jtwc_wp WP101952 16.4000 123.300 65 1 16.6000 123.500 3 48 992 16.4000 123.300 TC 65 16.4000 123.300 3 65 16.4000 123.300 65 984 300 15 325
1952242N08137 1952 59 WP MM MARY 1952-08-31 15:00:00 TS 17.0396 122.979 spur-merge 53 38 P_P______PPP__ WP101952 16.9421 122.969 65 1 17.3648 123.085 3 48 992 16.9421 122.969 TC 65 17.0069 122.904 3 63 16.9421 122.969 65 981 300 14 332
1952242N08137 1952 59 WP MM MARY 1952-08-31 18:00:00 TS 17.6427 122.673 spur-merge 46 10 O_O______OPO__ jtwc_wp WP101952 17.5000 122.700 65 1 18.1000 122.700 3 48 992 17.5000 122.700 TC 65 17.6134 122.567 3 62 17.5000 122.700 65 978 300 14 333
1952242N08137 1952 59 WP MM MARY 1952-08-31 21:00:00 TS 18.2685 122.313 spur-merge 0 0 P_P______PPP__ WP101952 18.1498 122.337 62 0 18.6798 122.307 3 53 992 18.1498 122.337 TC 62 18.2133 122.247 3 61 18.1498 122.337 62 977 300 14 329
1952242N08137 1952 59 WP MM MARY 1952-09-01 00:00:00 TS 18.8800 121.900 spur-merge 59 59 O_O______OOO__ jtwc_wp WP101952 18.8000 121.900 60 0 19.2000 121.900 3 58 992 18.8000 121.900 TC 60 18.8000 121.900 2 60 18.8000 121.900 60 976 300 15 323
1952242N08137 1952 59 WP MM MARY 1952-09-01 03:00:00 TS 19.4246 121.381 spur-merge 100 100 P_P______PPP__ WP101952 19.3652 121.350 57 0 19.7351 121.442 3 63 988 19.3652 121.350 TC 57 19.2922 121.412 2 57 19.3652 121.350 57 976 300 15 318
1952242N08137 1952 59 WP MM MARY 1952-09-01 06:00:00 TS 19.9563 120.859 spur-merge 156 156 O_O______OPO__ jtwc_wp WP101952 19.9000 120.800 55 0 20.3000 121.000 4 68 985 19.9000 120.800 TC 55 19.7815 120.897 2 55 19.9000 120.800 55 977 300 14 319
1952242N08137 1952 59 WP MM MARY 1952-09-01 09:00:00 TS 20.4614 120.424 spur-merge 159 108 P_P______PPP__ WP101952 20.3749 120.362 52 0 20.8524 120.627 4 68 985 20.3749 120.362 TC 52 20.3298 120.409 2 52 20.3749 120.362 52 978 300 14 327
1952242N08137 1952 59 WP MM MARY 1952-09-01 12:00:00 TS 21.1200 120.060 spur-merge 108 75 O_O______OOO__ jtwc_wp WP101952 21.0000 120.000 50 0 21.6000 120.300 4 68 985 21.0000 120.000 TC 50 21.0000 120.000 2 50 21.0000 120.000 50 980 300 18 338
1952242N08137 1952 59 WP MM MARY 1952-09-01 15:00:00 TS 22.1125 119.720 spur-merge 76 61 P_P______PPP__ WP101952 21.9901 119.648 47 0 22.7101 119.970 4 58 987 21.9901 119.648 TC 47 21.8823 119.683 2 50 21.9901 119.648 47 981 270 22 346
1952242N08137 1952 59 WP MM MARY 1952-09-01 18:00:00 TS 23.2374 119.472 spur-merge 61 61 O_O______OPO__ jtwc_wp WP101952 23.1000 119.400 45 0 24.0000 119.700 3 48 990 23.1000 119.400 TC 45 22.8870 119.458 2 50 23.1000 119.400 45 982 240 22 351
1952242N08137 1952 59 WP MM MARY 1952-09-01 21:00:00 TS 24.2875 119.334 spur-merge 69 0 P_P______PPP__ WP101952 24.0574 119.290 47 0 25.3173 119.476 3 43 991 24.0574 119.290 TC 47 23.9482 119.328 2 50 24.0574 119.290 47 982 240 21 356
1952242N08137 1952 59 WP MM MARY 1952-09-02 00:00:00 TS 25.3000 119.320 spur-merge 10 0 O_O______OOO__ jtwc_wp WP101952 25.0000 119.300 50 0 26.5000 119.400 2 38 992 25.0000 119.300 TC 50 25.0000 119.300 2 50 25.0000 119.300 50 983 240 20 1
1952242N08137 1952 59 WP MM MARY 1952-09-02 03:00:00 TS 26.2693 119.387 spur-merge 0 0 P_P______PPP__ WP101952 26.0149 119.355 50 0 27.3399 119.539 2 38 992 26.0149 119.355 TC 50 25.9620 119.329 2 51 26.0149 119.355 50 983 270 19 6
1952242N08137 1952 59 WP MM MARY 1952-09-02 06:00:00 TS 27.1803 119.553 spur-merge 0 0 O_O______OPO__ jtwc_wp WP101952 27.0000 119.500 50 0 28.0000 119.800 2 38 992 27.0000 119.500 TC 50 26.9014 119.463 2 52 27.0000 119.500 50 983 300 18 11
1952242N08137 1952 59 WP MM MARY 1952-09-02 09:00:00 TS 28.0090 119.774 spur-merge 0 0 P_P______PPP__ WP101952 27.8650 119.720 52 0 28.6348 120.021 2 38 992 27.8650 119.720 TC 52 27.8151 119.690 2 53 27.8650 119.720 52 983 330 17 15
1952242N08137 1952 59 WP MM MARY 1952-09-02 12:00:00 TS 28.8200 120.060 spur-merge 0 0 O_O______OOO__ jtwc_wp WP101952 28.7000 120.000 55 0 29.3000 120.300 2 38 992 28.7000 120.000 TC 55 28.7000 120.000 2 55 28.7000 120.000 55 983 360 18 16
1952242N08137 1952 59 WP MM MARY 1952-09-02 15:00:00 TS 29.7085 120.345 spur-merge 0 0 P_P______PPP__ WP101952 29.6146 120.249 55 0 30.1424 120.662 2 38 992 29.6146 120.249 TC 55 29.5566 120.317 2 53 29.6146 120.249 55 983 330 19 18
1952242N08137 1952 59 WP MM MARY 1952-09-02 18:00:00 TS 30.5771 120.724 spur-merge 0 0 O_O______OPO__ jtwc_wp WP101952 30.5000 120.600 55 0 31.0000 121.100 2 38 992 30.5000 120.600 TC 55 30.3854 120.718 2 52 30.5000 120.600 55 984 300 18 26
1952242N08137 1952 59 WP MM MARY 1952-09-02 21:00:00 TS 31.3384 121.252 spur-merge 0 0 P_P______PPP__ WP101952 31.2577 121.156 52 0 31.7224 121.586 2 43 991 31.2577 121.156 TC 52 31.1966 121.209 2 51 31.2577 121.156 52 984 300 18 33
1952242N08137 1952 59 WP MM MARY 1952-09-03 00:00:00 TS 32.0800 121.860 spur-merge 21 21 O_O______OOO__ jtwc_wp WP101952 32.0000 121.800 50 0 32.4000 122.100 3 48 990 32.0000 121.800 TC 50 32.0000 121.800 2 50 32.0000 121.800 50 984 300 18 32
1952242N08137 1952 59 WP MM MARY 1952-09-03 03:00:00 TS 32.8912 122.414 spur-merge 108 108 P_P______PPP__ WP101952 32.8487 122.342 50 0 33.1065 122.549 3 48 990 32.8487 122.342 TC 50 32.8034 122.493 2 48 32.8487 122.342 50 984 300 19 32
1952242N08137 1952 59 WP MM MARY 1952-09-03 06:00:00 TS 33.7066 123.068 spur-merge 214 214 O_O______OPO__ jtwc_wp WP101952 33.7000 123.000 50 0 33.8000 123.100 3 48 990 33.7000 123.000 TC 50 33.6061 123.272 2 47 33.7000 123.000 50 984 300 20 39
1952242N08137 1952 59 WP MM MARY 1952-09-03 09:00:00 TS 34.4077 123.908 spur-merge 220 118 P_P______PPP__ WP101952 34.3660 123.873 47 0 34.4572 123.869 3 48 990 34.3660 123.873 TC 47 34.4058 124.116 2 46 34.4777 123.915 47 984 270 21 47
1952242N08137 1952 59 WP MM MARY 1952-09-03 12:00:00 TS 35.1714 124.943 spur-merge 118 24 O_O______OOO__ jtwc_wp WP101952 35.2000 125.000 45 0 35.1000 124.800 3 48 990 35.2000 125.000 TC 45 35.2000 125.000 2 45 35.2000 125.000 45 985 240 27 45
1952242N08137 1952 59 WP MM MARY 1952-09-03 15:00:00 TS 36.3154 126.237 spur-merge 14 0 P_P______P____ WP101952 36.6021 126.452 45 0 35.7419 125.807 3 48 990 36.6021 126.452 TC 45 2 32 43
1952242N08137 1952 59 WP MM MARY 1952-09-03 18:00:00 TS 37.4667 127.633 spur-merge 0 0 O_O______O____ jtwc_wp WP101952 38.0000 128.000 45 0 36.4000 126.900 3 48 990 38.0000 128.000 TC 45 2 28 47
1952242N08137 1952 59 WP MM MARY 1952-09-03 21:00:00 TS 38.2361 128.830 spur-merge 20 20 P_P______P____ WP101952 38.8195 129.226 42 0 37.0694 128.038 3 53 989 38.8195 129.226 TC 42 2 24 53
1952242N08137 1952 59 WP MM MARY 1952-09-04 00:00:00 TS 38.9333 130.067 spur-merge 148 148 O_O______O____ jtwc_wp WP101952 39.5000 130.500 40 0 37.8000 129.200 3 58 988 39.5000 130.500 TC 40 26 53
1952242N08137 1952 59 WP MM MARY 1952-09-04 03:00:00 TS 39.8133 131.555 spur-merge 195 189 P_P______P____ WP101952 40.3838 132.139 37 0 38.6723 130.386 3 58 986 40.3838 132.139 TC 37 28 54
1952242N08137 1952 59 WP MM MARY 1952-09-04 06:00:00 MX 40.5800 133.000 spur-merge 233 190 O_O______O____ jtwc_wp WP101952 41.3000 134.000 35 0 39.5000 131.500 9 58 984 41.3000 134.000 TC 35 24 57
1952242N08137 1952 59 WP MM MARY 1952-09-04 09:00:00 MX 41.1215 134.171 spur-merge 193 176 P_P______P____ WP101952 42.1740 135.965 32 -1 40.0690 132.377 9 58 983 42.1740 135.965 TC 32 16 60
1952242N08137 1952 59 WP MM MARY 1952-09-04 12:00:00 MX 41.4000 134.867 spur-merge 184 180 O_O______O____ jtwc_wp WP101952 43.0000 138.000 30 -1 40.6000 133.300 9 58 983 43.0000 138.000 TC 30 4 59
1952242N08137 1952 59 WP MM MARY 1952-09-04 15:00:00 ET 41.3083 134.588 spur-merge 182 174 __P___________ WP101952 -1 41.3083 134.588 9 48 988 TC 10 55
1952242N08137 1952 59 WP MM MARY 1952-09-04 18:00:00 ET 42.0000 136.000 spur-merge 182 179 __O___________ -1 42.0000 136.000 9 38 994 24 59
1952242N08137 1952 59 WP MM MARY 1952-09-04 21:00:00 ET 42.5488 137.332 spur-merge 204 114 __P___________ -1 42.5488 137.332 9 33 996 22 62
1952242N08137 1952 59 WP MM MARY 1952-09-05 00:00:00 ET 43.0000 138.600 spur-merge 107 __O___________ -1 43.0000 138.600 9 29 998 21 64

デジタル台風データ・検索

IBTrACS Databaseについて

本データベースは、米国NOAAが公開する1842年以降の世界の熱帯低気圧のベストトラックデータアーカイブInternational Best Track Archive for Climate Stewardship (IBTrACS)を、ウェブで閲覧しやすい形式に変換したものです。

最終更新日:2021-10-25